Aviation Digital Data Service (ADDS)

Output produced by METARs form (1625 UTC 23 May 2015)
found at http://www.aviationweather.gov/adds/metars/
 
KIAD 231431Z 2315/2418 00000KT P6SM FEW250